Time;durP1;ratioP1;P1;durP2;ratioP2;P2;SDS_P1;SDS_P2;PMS_P1;PMS_P2;Temp;Humidity;BMP_temperature;BMP_pressure;BME280_temperature;BME280_humidity;BME280_pressure;Samples;Min_cycle;Max_cycle;Signal;HPM_P1;HPM_P2
2023/10/06 00:03:10;;;;;;;0.20;0.20;;;13.80;99.90;;;;;;5034128;28;20067;-82
2023/10/06 00:05:37;;;;;;;0.25;0.25;;;13.90;99.90;;;;;;5017936;28;20056;-82
2023/10/06 00:08:11;;;;;;;0.20;0.20;;;14.00;99.90;;;;;;5037613;28;20026;-81
2023/10/06 00:10:44;;;;;;;0.35;0.35;;;14.00;99.90;;;;;;5034067;28;20502;-81
2023/10/06 00:13:19;;;;;;;0.10;0.10;;;14.00;99.90;;;;;;5035587;28;20016;-82
2023/10/06 00:15:45;;;;;;;0.15;0.15;;;13.90;99.90;;;;;;5035031;28;20393;-82
2023/10/06 00:18:23;;;;;;;0.10;0.10;;;14.00;99.90;;;;;;5034384;28;20122;-82
2023/10/06 00:20:53;;;;;;;0.20;0.20;;;14.00;99.90;;;;;;5019408;28;20025;-82
2023/10/06 00:23:21;;;;;;;0.10;0.10;;;14.00;99.90;;;;;;5020537;28;20025;-82
2023/10/06 00:25:54;;;;;;;0.45;0.45;;;14.00;99.90;;;;;;5035778;28;20053;-82
2023/10/06 00:28:25;;;;;;;0.20;0.20;;;13.90;99.90;;;;;;5020271;28;20386;-84
2023/10/06 00:31:06;;;;;;;0.10;0.10;;;13.80;99.90;;;;;;5033543;28;20178;-82
2023/10/06 00:33:37;;;;;;;0.20;0.20;;;13.90;99.90;;;;;;5030986;28;20094;-82
2023/10/06 00:36:13;;;;;;;0.20;0.20;;;13.80;99.90;;;;;;5024931;28;20228;-82
2023/10/06 00:38:42;;;;;;;0.10;0.10;;;13.90;99.90;;;;;;5017055;28;20756;-83
2023/10/06 00:41:08;;;;;;;0.20;0.20;;;13.90;99.90;;;;;;5034370;28;20013;-82
2023/10/06 00:43:36;;;;;;;0.20;0.20;;;13.80;99.90;;;;;;5033406;28;20024;-82
2023/10/06 00:46:07;;;;;;;0.20;0.20;;;13.70;99.90;;;;;;5015597;28;20021;-82
2023/10/06 00:48:38;;;;;;;0.45;0.45;;;13.60;99.90;;;;;;5039664;28;20074;-83
2023/10/06 00:51:09;;;;;;;0.52;0.52;;;13.60;99.90;;;;;;5019180;28;20036;-82
2023/10/06 00:53:35;;;;;;;0.15;0.15;;;13.60;99.90;;;;;;5017083;28;20079;-82
2023/10/06 00:56:10;;;;;;;0.20;0.20;;;13.50;99.90;;;;;;5032690;28;20027;-82
2023/10/06 00:58:39;;;;;;;0.10;0.10;;;13.50;99.90;;;;;;5013200;28;20136;-82
2023/10/06 01:01:08;;;;;;;0.10;0.10;;;13.60;99.90;;;;;;5022717;28;20034;-82
2023/10/06 01:03:38;;;;;;;0.20;0.20;;;13.50;99.90;;;;;;5037023;28;20048;-82
2023/10/06 01:06:09;;;;;;;0.20;0.20;;;13.50;99.90;;;;;;5033414;28;20032;-82
2023/10/06 01:08:34;;;;;;;0.20;0.20;;;13.50;99.90;;;;;;5037059;28;20033;-82
2023/10/06 01:11:17;;;;;;;0.43;0.43;;;13.50;99.90;;;;;;5039370;28;20036;-82
2023/10/06 01:13:56;;;;;;;0.57;0.57;;;13.50;99.90;;;;;;5017421;28;20021;-82
2023/10/06 01:16:34;;;;;;;0.52;0.52;;;13.50;99.90;;;;;;5033711;28;20025;-81
2023/10/06 01:19:47;;;;;;;0.17;0.17;;;13.60;99.90;;;;;;5032385;28;20144;-82
2023/10/06 01:21:48;;;;;;;0.10;0.10;;;13.60;99.90;;;;;;5026832;28;21052;-82
2023/10/06 01:24:28;;;;;;;0.40;0.40;;;13.50;99.90;;;;;;5019506;28;20215;-82
2023/10/06 01:27:07;;;;;;;0.10;0.10;;;13.40;99.90;;;;;;5030144;28;20053;-82
2023/10/06 01:29:37;;;;;;;0.20;0.20;;;13.30;99.90;;;;;;5033285;28;20025;-82
2023/10/06 01:32:08;;;;;;;0.10;0.10;;;13.30;99.90;;;;;;5033534;28;20040;-82
2023/10/06 01:34:38;;;;;;;1.88;0.30;;;13.30;99.90;;;;;;5016995;28;20116;-82
2023/10/06 01:37:07;;;;;;;0.55;0.40;;;13.30;99.90;;;;;;5020584;28;20437;-82
2023/10/06 01:39:36;;;;;;;0.45;0.45;;;13.30;99.90;;;;;;5012642;28;20048;-82
2023/10/06 01:42:17;;;;;;;0.10;0.10;;;13.30;99.90;;;;;;5011568;28;20112;-82
2023/10/06 01:44:43;;;;;;;0.43;0.43;;;13.30;99.90;;;;;;5032187;28;20201;-82
2023/10/06 01:47:11;;;;;;;0.10;0.10;;;13.30;99.90;;;;;;5018414;28;20032;-82
2023/10/06 01:49:37;;;;;;;0.20;0.20;;;13.40;99.90;;;;;;5034191;28;20037;-83
2023/10/06 01:52:05;;;;;;;0.30;0.30;;;13.40;99.90;;;;;;5023071;28;20183;-82
2023/10/06 01:54:34;;;;;;;0.10;0.10;;;13.40;99.90;;;;;;5017729;28;20033;-83
2023/10/06 01:57:11;;;;;;;0.20;0.20;;;13.40;99.90;;;;;;5021828;28;20045;-82
2023/10/06 01:59:36;;;;;;;0.68;0.68;;;13.50;99.90;;;;;;5034743;28;20028;-82
2023/10/06 02:02:02;;;;;;;0.10;0.10;;;13.40;99.90;;;;;;5033216;28;20017;-82
2023/10/06 02:04:45;;;;;;;0.20;0.20;;;13.40;99.90;;;;;;5022866;28;20022;-82
2023/10/06 02:07:11;;;;;;;0.43;0.37;;;13.30;99.90;;;;;;5018696;28;20393;-82
2023/10/06 02:09:37;;;;;;;0.43;0.43;;;13.50;99.90;;;;;;5037127;28;20032;-82
2023/10/06 02:12:03;;;;;;;0.10;0.10;;;13.50;99.90;;;;;;5034227;28;20386;-82
2023/10/06 02:14:29;;;;;;;0.10;0.10;;;13.50;99.90;;;;;;5016886;28;20021;-83
2023/10/06 02:16:55;;;;;;;0.10;0.10;;;13.40;99.90;;;;;;5017654;28;20029;-82
2023/10/06 02:19:22;;;;;;;0.25;0.25;;;13.40;99.90;;;;;;5014476;28;20058;-83
2023/10/06 02:21:51;;;;;;;0.30;0.30;;;13.50;99.90;;;;;;5030444;28;20090;-83
2023/10/06 02:24:20;;;;;;;0.10;0.10;;;13.40;99.90;;;;;;5037653;28;20058;-82
2023/10/06 02:27:02;;;;;;;0.10;0.10;;;13.30;99.90;;;;;;5051205;28;20021;-82
2023/10/06 02:29:29;;;;;;;0.38;0.38;;;13.30;99.90;;;;;;5030386;28;20301;-82
2023/10/06 02:32:06;;;;;;;0.30;0.30;;;13.30;99.90;;;;;;5032623;28;20505;-82
2023/10/06 02:34:40;;;;;;;0.65;0.65;;;13.40;99.90;;;;;;5031462;28;20047;-82
2023/10/06 02:37:06;;;;;;;0.20;0.20;;;13.40;99.90;;;;;;5017101;28;20056;-82
2023/10/06 02:39:38;;;;;;;0.85;0.85;;;13.50;99.90;;;;;;5020473;28;20477;-83
2023/10/06 02:42:13;;;;;;;0.10;0.10;;;13.30;99.90;;;;;;5015563;28;20263;-82
2023/10/06 02:44:40;;;;;;;0.20;0.20;;;13.40;99.90;;;;;;5037679;28;20096;-82
2023/10/06 02:47:10;;;;;;;0.30;0.25;;;13.40;99.90;;;;;;5032782;28;20089;-82
2023/10/06 02:49:40;;;;;;;0.30;0.30;;;13.40;99.90;;;;;;5032709;28;20049;-82
2023/10/06 02:52:21;;;;;;;0.20;0.20;;;13.30;99.90;;;;;;5019514;28;20037;-83
2023/10/06 02:57:28;;;;;;;0.20;0.20;;;13.30;99.90;;;;;;5038765;28;20033;-82
2023/10/06 03:00:16;;;;;;;0.60;0.32;;;13.20;99.90;;;;;;5024109;28;20018;-84
2023/10/06 03:02:41;;;;;;;0.20;0.20;;;13.20;99.90;;;;;;5061363;28;20026;-83
2023/10/06 03:05:12;;;;;;;0.13;0.13;;;13.10;99.90;;;;;;5061105;28;20017;-82
2023/10/06 03:07:38;;;;;;;0.10;0.10;;;13.10;99.90;;;;;;5048070;28;20039;-82
2023/10/06 03:10:08;;;;;;;0.30;0.30;;;13.20;99.90;;;;;;5023845;28;20066;-82
2023/10/06 03:12:34;;;;;;;0.28;0.28;;;13.10;99.90;;;;;;5024191;28;20053;-81
2023/10/06 03:15:09;;;;;;;0.68;0.68;;;13.10;99.90;;;;;;5034769;28;20083;-82
2023/10/06 03:17:34;;;;;;;0.15;0.15;;;13.10;99.90;;;;;;5040491;28;20619;-83
2023/10/06 03:20:11;;;;;;;0.40;0.40;;;13.20;99.90;;;;;;5034466;28;20101;-82
2023/10/06 03:22:40;;;;;;;0.30;0.30;;;13.20;99.90;;;;;;5038601;28;20021;-82
2023/10/06 03:25:18;;;;;;;0.45;0.45;;;13.20;99.90;;;;;;5040635;28;20392;-81
2023/10/06 03:27:53;;;;;;;0.75;0.75;;;13.20;99.90;;;;;;5038163;28;20172;-82
2023/10/06 03:30:32;;;;;;;0.20;0.20;;;13.30;99.90;;;;;;5019954;28;20075;-82
2023/10/06 03:32:59;;;;;;;0.20;0.20;;;13.20;99.90;;;;;;5035845;28;20037;-82
2023/10/06 03:35:36;;;;;;;0.20;0.20;;;13.10;99.90;;;;;;5036942;28;20615;-83
2023/10/06 03:38:13;;;;;;;0.10;0.10;;;13.00;99.90;;;;;;5038858;28;20029;-81
2023/10/06 03:43:13;;;;;;;0.32;0.32;;;13.10;99.90;;;;;;5039600;28;20018;-82
2023/10/06 03:45:40;;;;;;;0.80;0.80;;;13.20;99.90;;;;;;5020910;28;20036;-82
2023/10/06 03:48:11;;;;;;;0.20;0.20;;;13.10;99.90;;;;;;5039110;28;20057;-83
2023/10/06 03:50:46;;;;;;;0.20;0.20;;;13.10;99.90;;;;;;5036587;28;20084;-82
2023/10/06 03:53:14;;;;;;;0.50;0.50;;;13.10;99.90;;;;;;5035374;28;20116;-84
2023/10/06 03:55:40;;;;;;;0.20;0.20;;;13.10;99.90;;;;;;5036874;28;20123;-82
2023/10/06 03:58:10;;;;;;;0.20;0.20;;;13.00;99.90;;;;;;5038011;28;20415;-81
2023/10/06 04:00:40;;;;;;;0.20;0.20;;;12.90;99.90;;;;;;5026315;28;20063;-82
2023/10/06 04:03:09;;;;;;;0.20;0.20;;;13.00;99.90;;;;;;5025727;28;20079;-82
2023/10/06 04:05:38;;;;;;;0.75;0.73;;;13.00;99.90;;;;;;5040674;28;20474;-83
2023/10/06 04:08:08;;;;;;;0.20;0.20;;;13.00;99.90;;;;;;5022055;28;20025;-82
2023/10/06 04:10:36;;;;;;;0.20;0.20;;;13.00;99.90;;;;;;5020415;28;20017;-82
2023/10/06 04:13:10;;;;;;;0.90;0.90;;;13.00;99.90;;;;;;5036966;28;20013;-82
2023/10/06 04:15:43;;;;;;;0.20;0.20;;;13.10;99.90;;;;;;5038306;28;20025;-82
2023/10/06 04:18:10;;;;;;;2.72;0.32;;;13.10;99.90;;;;;;5038664;28;20413;-82
2023/10/06 04:20:43;;;;;;;0.20;0.20;;;13.00;99.90;;;;;;5039611;28;20038;-82
2023/10/06 04:23:11;;;;;;;0.10;0.10;;;13.00;99.90;;;;;;5026554;28;20025;-82
2023/10/06 04:25:38;;;;;;;0.17;0.17;;;13.00;99.90;;;;;;5022730;28;20048;-81
2023/10/06 04:28:11;;;;;;;0.20;0.20;;;13.00;99.90;;;;;;5037680;28;20025;-82
2023/10/06 04:30:37;;;;;;;;;;;13.00;99.90;;;;;;5019156;28;20017;-81
2023/10/06 04:33:08;;;;;;;0.65;0.65;;;13.00;99.90;;;;;;5036755;28;19905;-82
2023/10/06 04:35:34;;;;;;;0.20;0.20;;;13.10;99.90;;;;;;5018059;28;20032;-82
2023/10/06 04:38:01;;;;;;;0.20;0.20;;;13.20;99.90;;;;;;5021183;28;20033;-82
2023/10/06 04:40:27;;;;;;;0.10;0.10;;;13.20;99.90;;;;;;5035911;28;20028;-82
2023/10/06 04:42:54;;;;;;;0.10;0.10;;;13.20;99.90;;;;;;5036965;28;20052;-83
2023/10/06 04:45:22;;;;;;;0.13;0.13;;;13.20;99.90;;;;;;5035895;28;20021;-82
2023/10/06 04:47:48;;;;;;;0.28;0.28;;;13.20;99.90;;;;;;5016353;28;20040;-82
2023/10/06 04:50:15;;;;;;;0.10;0.10;;;13.20;99.90;;;;;;5017224;28;20047;-82
2023/10/06 04:52:46;;;;;;;0.20;0.20;;;13.10;99.90;;;;;;5016022;28;20474;-81
2023/10/06 04:55:13;;;;;;;0.10;0.10;;;13.00;99.90;;;;;;5018649;28;20018;-82
2023/10/06 04:57:41;;;;;;;0.20;0.20;;;13.10;99.90;;;;;;5015826;28;20625;-82
2023/10/06 05:00:18;;;;;;;0.63;0.38;;;13.00;99.90;;;;;;5016448;28;20052;-82
2023/10/06 05:02:47;;;;;;;0.32;0.28;;;13.00;99.90;;;;;;5018711;28;20021;-82
2023/10/06 05:05:13;;;;;;;0.20;0.20;;;13.00;99.90;;;;;;5032771;28;20021;-82
2023/10/06 05:07:39;;;;;;;0.38;0.25;;;13.00;99.90;;;;;;5034596;28;20091;-82
2023/10/06 05:10:08;;;;;;;0.20;0.20;;;12.90;99.90;;;;;;5033496;28;20036;-82
2023/10/06 05:12:37;;;;;;;0.40;0.40;;;12.90;99.90;;;;;;5032110;28;20427;-82
2023/10/06 05:15:14;;;;;;;0.82;0.28;;;12.90;99.90;;;;;;5015331;28;20473;-82
2023/10/06 05:17:40;;;;;;;0.43;0.43;;;12.80;99.90;;;;;;5032939;28;20021;-82
2023/10/06 05:20:13;;;;;;;0.40;0.40;;;12.80;99.90;;;;;;5036151;28;20025;-82
2023/10/06 05:22:40;;;;;;;0.15;0.15;;;12.80;99.90;;;;;;5017871;28;20048;-82
2023/10/06 05:25:12;;;;;;;0.35;0.35;;;12.80;99.90;;;;;;5035043;28;20334;-82
2023/10/06 05:27:38;;;;;;;0.63;0.63;;;12.70;99.90;;;;;;5033975;28;20025;-82
2023/10/06 05:30:06;;;;;;;0.35;0.35;;;12.70;99.90;;;;;;5036020;28;20515;-82
2023/10/06 05:32:32;;;;;;;0.20;0.20;;;12.80;99.90;;;;;;5033114;28;20451;-82
2023/10/06 05:34:58;;;;;;;0.28;0.28;;;12.90;99.90;;;;;;5033966;28;20025;-82
2023/10/06 05:37:25;;;;;;;0.30;0.30;;;12.90;99.90;;;;;;5032909;28;20025;-83
2023/10/06 05:39:51;;;;;;;0.20;0.20;;;12.80;99.90;;;;;;5022750;28;20061;-82
2023/10/06 05:42:17;;;;;;;0.20;0.20;;;12.60;99.90;;;;;;5033151;28;20053;-81
2023/10/06 05:44:42;;;;;;;0.47;0.47;;;12.60;99.90;;;;;;5033927;28;20024;-84
2023/10/06 05:47:08;;;;;;;0.20;0.20;;;12.70;99.90;;;;;;5017281;28;20258;-82
2023/10/06 05:49:38;;;;;;;0.20;0.20;;;12.50;99.90;;;;;;5018636;28;20037;-82
2023/10/06 05:52:04;;;;;;;0.22;0.22;;;12.50;99.90;;;;;;5032394;28;20092;-82
2023/10/06 05:54:30;;;;;;;0.68;0.52;;;12.50;99.90;;;;;;5014463;28;20504;-82
2023/10/06 05:56:56;;;;;;;0.20;0.20;;;12.60;99.90;;;;;;5032024;28;20037;-82
2023/10/06 05:59:22;;;;;;;0.20;0.20;;;12.60;99.90;;;;;;5017909;28;20024;-82
2023/10/06 06:01:56;;;;;;;0.20;0.20;;;12.60;99.90;;;;;;5034508;28;20473;-82
2023/10/06 06:04:27;;;;;;;0.35;0.35;;;12.70;99.90;;;;;;5014646;28;20164;-82
2023/10/06 06:06:57;;;;;;;0.50;0.50;;;12.70;99.90;;;;;;5018230;28;20083;-82
2023/10/06 06:09:24;;;;;;;0.20;0.20;;;12.80;99.90;;;;;;5022600;28;20029;-82
2023/10/06 06:11:50;;;;;;;0.13;0.13;;;12.90;99.90;;;;;;5025170;28;20048;-82
2023/10/06 06:14:20;;;;;;;0.20;0.20;;;13.00;99.90;;;;;;5032673;28;20033;-82
2023/10/06 06:16:46;;;;;;;0.13;0.13;;;12.90;99.90;;;;;;5018476;28;20033;-82
2023/10/06 06:19:11;;;;;;;0.82;0.82;;;13.00;99.90;;;;;;5034458;28;20149;-81
2023/10/06 06:21:44;;;;;;;0.30;0.30;;;13.00;99.90;;;;;;5034112;28;20141;-82
2023/10/06 06:24:10;;;;;;;;;;;13.10;99.90;;;;;;5029164;28;20021;-81
2023/10/06 06:26:36;;;;;;;0.20;0.20;;;12.90;99.90;;;;;;5013611;28;20630;-82
2023/10/06 06:29:08;;;;;;;0.30;0.30;;;13.00;99.90;;;;;;5018564;28;20094;-82
2023/10/06 06:31:34;;;;;;;1.20;1.17;;;13.10;99.90;;;;;;5038251;28;20021;-82
2023/10/06 06:34:05;;;;;;;0.40;0.40;;;13.10;99.90;;;;;;5038476;28;20090;-82
2023/10/06 06:36:31;;;;;;;0.20;0.20;;;13.20;99.90;;;;;;5041105;28;20021;-80
2023/10/06 06:39:03;;;;;;;0.30;0.30;;;13.30;99.90;;;;;;5041221;28;20110;-82
2023/10/06 06:41:31;;;;;;;0.30;0.30;;;13.30;99.90;;;;;;5023689;28;20392;-82
2023/10/06 06:44:01;;;;;;;0.43;0.43;;;13.30;99.90;;;;;;5027582;28;20128;-83
2023/10/06 06:46:27;;;;;;;0.20;0.20;;;13.40;99.90;;;;;;5052255;28;20022;-83
2023/10/06 06:48:53;;;;;;;0.20;0.20;;;13.50;99.90;;;;;;5044464;28;20033;-83
2023/10/06 06:51:20;;;;;;;0.20;0.20;;;13.50;99.90;;;;;;5032090;28;20662;-81
2023/10/06 06:53:47;;;;;;;0.30;0.30;;;13.70;99.90;;;;;;5045005;28;20032;-82
2023/10/06 06:56:12;;;;;;;0.63;0.63;;;13.80;99.90;;;;;;5034189;28;20086;-82
2023/10/06 06:58:39;;;;;;;0.60;0.60;;;13.80;99.90;;;;;;5020429;28;20024;-82
2023/10/06 07:01:06;;;;;;;0.13;0.13;;;13.90;99.90;;;;;;5023596;28;20093;-82
2023/10/06 07:03:34;;;;;;;0.98;0.85;;;14.00;99.90;;;;;;5019982;28;20083;-80
2023/10/06 07:06:00;;;;;;;0.30;0.30;;;14.10;99.90;;;;;;5024808;28;20039;-80
2023/10/06 07:08:25;;;;;;;0.15;0.15;;;14.10;99.90;;;;;;5018419;28;20025;-81
2023/10/06 07:10:54;;;;;;;0.15;0.15;;;14.20;99.90;;;;;;5035343;28;20033;-80
2023/10/06 07:13:23;;;;;;;0.60;0.60;;;14.20;99.90;;;;;;5036711;28;20029;-82
2023/10/06 07:15:53;;;;;;;0.20;0.20;;;14.30;99.90;;;;;;5038237;28;20051;-82
2023/10/06 07:18:19;;;;;;;0.22;0.22;;;14.30;99.90;;;;;;5025314;28;20015;-83
2023/10/06 07:20:45;;;;;;;0.20;0.20;;;14.30;99.90;;;;;;5024808;28;20727;-82
2023/10/06 07:23:11;;;;;;;0.20;0.20;;;14.30;99.90;;;;;;5039104;28;20025;-83
2023/10/06 07:25:37;;;;;;;0.35;0.22;;;14.50;99.90;;;;;;5019421;28;20169;-82
2023/10/06 07:28:05;;;;;;;0.17;0.17;;;14.50;99.90;;;;;;5021211;28;20638;-82
2023/10/06 07:30:34;;;;;;;0.45;0.45;;;14.60;99.90;;;;;;5018235;28;20036;-81
2023/10/06 07:33:02;;;;;;;0.35;0.35;;;14.50;99.90;;;;;;5016517;28;20526;-82
2023/10/06 07:35:37;;;;;;;0.10;0.10;;;14.60;99.90;;;;;;5014234;28;20025;-83
2023/10/06 07:38:03;;;;;;;0.70;0.70;;;14.60;99.90;;;;;;5018397;28;20592;-83
2023/10/06 07:40:32;;;;;;;0.10;0.10;;;14.70;99.90;;;;;;5017378;28;20028;-82
2023/10/06 07:42:58;;;;;;;0.15;0.15;;;14.70;99.90;;;;;;5021980;28;20081;-82
2023/10/06 07:45:26;;;;;;;0.30;0.30;;;14.80;99.90;;;;;;5016462;28;20022;-84
2023/10/06 07:47:54;;;;;;;0.30;0.30;;;15.00;99.90;;;;;;5021382;28;20530;-80
2023/10/06 07:50:20;;;;;;;0.75;0.75;;;14.90;99.90;;;;;;5032328;28;20056;-82
2023/10/06 07:52:47;;;;;;;0.10;0.10;;;14.90;99.90;;;;;;5033909;28;20510;-82
2023/10/06 07:55:13;;;;;;;0.20;0.20;;;15.00;99.90;;;;;;5034326;28;20021;-82
2023/10/06 07:57:46;;;;;;;0.20;0.20;;;15.00;99.90;;;;;;5038404;28;20538;-82
2023/10/06 08:00:18;;;;;;;0.32;0.32;;;15.00;99.90;;;;;;5035867;28;20024;-82
2023/10/06 08:02:47;;;;;;;0.20;0.20;;;15.10;99.90;;;;;;5037968;28;20116;-83
2023/10/06 08:05:17;;;;;;;0.20;0.20;;;15.30;99.90;;;;;;5032041;28;20128;-83
2023/10/06 08:07:43;;;;;;;0.50;0.50;;;15.10;99.90;;;;;;5032275;28;20474;-83
2023/10/06 08:10:13;;;;;;;0.65;0.65;;;15.30;99.90;;;;;;5037677;28;20037;-83
2023/10/06 08:12:50;;;;;;;0.60;0.30;;;15.30;99.90;;;;;;5019033;28;20026;-83
2023/10/06 08:15:21;;;;;;;0.20;0.20;;;15.50;99.90;;;;;;5037402;28;20432;-83
2023/10/06 08:17:55;;;;;;;0.20;0.20;;;15.50;99.90;;;;;;5024119;28;20045;-82
2023/10/06 08:20:21;;;;;;;0.20;0.20;;;15.60;99.90;;;;;;5021476;28;20013;-83
2023/10/06 08:22:49;;;;;;;0.40;0.40;;;15.60;99.90;;;;;;5018122;28;20124;-83
2023/10/06 08:25:19;;;;;;;0.20;0.20;;;15.70;99.90;;;;;;5037679;28;20462;-82
2023/10/06 08:27:49;;;;;;;0.40;0.40;;;15.90;99.90;;;;;;5033833;28;20044;-83
2023/10/06 08:30:16;;;;;;;0.20;0.20;;;15.80;99.90;;;;;;5035576;28;20117;-83
2023/10/06 08:32:53;;;;;;;0.38;0.32;;;15.90;99.90;;;;;;5013930;28;20025;-83
2023/10/06 08:35:21;;;;;;;0.40;0.40;;;16.00;99.90;;;;;;5035573;28;20024;-83
2023/10/06 08:37:51;;;;;;;0.20;0.20;;;16.20;99.90;;;;;;5036239;28;20366;-83
2023/10/06 08:40:19;;;;;;;0.40;0.40;;;16.20;99.90;;;;;;5032320;28;20548;-83
2023/10/06 08:42:47;;;;;;;1.65;0.40;;;16.30;99.90;;;;;;5035391;28;20549;-82
2023/10/06 08:45:22;;;;;;;0.20;0.20;;;16.40;99.90;;;;;;5022033;28;20120;-82
2023/10/06 08:47:53;;;;;;;0.40;0.40;;;16.60;99.90;;;;;;5026201;28;20035;-83
2023/10/06 08:50:22;;;;;;;0.68;0.68;;;16.80;99.90;;;;;;5020880;28;20352;-83
2023/10/06 08:52:52;;;;;;;0.28;0.28;;;16.80;99.90;;;;;;5032372;28;20036;-81
2023/10/06 08:55:22;;;;;;;0.45;0.45;;;16.90;99.90;;;;;;5012585;28;20291;-81
2023/10/06 08:57:52;;;;;;;0.43;0.43;;;17.00;99.90;;;;;;5015658;28;20610;-81
2023/10/06 09:00:19;;;;;;;0.25;0.25;;;16.90;99.90;;;;;;5035734;28;20033;-84
2023/10/06 09:02:50;;;;;;;0.30;0.30;;;17.10;99.90;;;;;;5027687;28;20129;-84
2023/10/06 09:05:15;;;;;;;0.45;0.45;;;17.30;99.90;;;;;;5037397;28;20395;-83
2023/10/06 09:08:00;;;;;;;0.43;0.43;;;17.40;99.90;;;;;;5019996;28;20113;-84
2023/10/06 09:10:30;;;;;;;0.20;0.20;;;17.60;99.90;;;;;;5024692;28;20049;-85
2023/10/06 09:13:08;;;;;;;0.45;0.45;;;17.60;99.90;;;;;;5026644;28;20030;-84
2023/10/06 09:15:39;;;;;;;0.40;0.40;;;17.70;99.90;;;;;;5022373;28;20052;-84
2023/10/06 09:18:27;;;;;;;1.17;0.68;;;17.70;99.90;;;;;;5039341;28;20690;-83
2023/10/06 09:20:57;;;;;;;0.30;0.30;;;17.60;99.90;;;;;;5031696;28;20033;-84
2023/10/06 09:23:39;;;;;;;0.30;0.30;;;17.80;99.90;;;;;;5021811;28;20018;-82
2023/10/06 09:26:07;;;;;;;14.60;8.90;;;18.10;99.90;;;;;;5035279;28;20155;-82
2023/10/06 09:28:33;;;;;;;0.20;0.20;;;18.30;99.90;;;;;;5034795;28;20033;-85
2023/10/06 09:31:05;;;;;;;0.43;0.43;;;18.40;99.90;;;;;;5025570;28;20058;-85
2023/10/06 09:33:36;;;;;;;2.55;0.70;;;18.50;99.90;;;;;;5020310;28;20020;-85
2023/10/06 09:36:05;;;;;;;0.30;0.30;;;18.40;99.90;;;;;;5034176;28;20025;-84
2023/10/06 09:38:32;;;;;;;0.98;0.50;;;18.60;99.90;;;;;;5017187;28;20107;-84
2023/10/06 09:40:58;;;;;;;0.30;0.30;;;18.80;99.90;;;;;;5018800;28;20413;-84
2023/10/06 09:43:25;;;;;;;0.57;0.57;;;18.80;99.90;;;;;;5020400;28;20032;-81
2023/10/06 09:45:53;;;;;;;0.50;0.50;;;18.90;99.90;;;;;;5015807;28;20033;-83
2023/10/06 09:48:26;;;;;;;0.50;0.50;;;19.10;99.90;;;;;;5037842;28;20200;-84
2023/10/06 09:50:54;;;;;;;0.33;0.33;;;19.30;99.90;;;;;;5019171;28;20048;-84
2023/10/06 09:53:21;;;;;;;0.60;0.60;;;19.40;99.90;;;;;;5027332;28;20292;-83
2023/10/06 09:55:49;;;;;;;0.82;0.82;;;19.60;99.90;;;;;;5020963;28;20021;-83
2023/10/06 09:58:17;;;;;;;0.80;0.80;;;19.50;99.90;;;;;;5035828;28;20024;-84
2023/10/06 10:00:44;;;;;;;0.70;0.70;;;19.60;99.90;;;;;;5023876;28;20017;-83
2023/10/06 10:03:13;;;;;;;0.50;0.47;;;19.60;99.90;;;;;;5029657;28;20021;-83
2023/10/06 10:05:43;;;;;;;0.22;0.22;;;19.40;99.90;;;;;;5035046;28;20025;-83
2023/10/06 10:08:09;;;;;;;3.13;2.55;;;19.30;99.90;;;;;;5037266;28;20026;-80
2023/10/06 10:10:43;;;;;;;0.80;0.80;;;19.20;99.90;;;;;;5036849;28;20021;-84
2023/10/06 10:13:31;;;;;;;0.40;0.40;;;19.10;99.90;;;;;;5026063;28;20036;-83
2023/10/06 10:16:25;;;;;;;0.30;0.30;;;18.70;99.90;;;;;;5019133;28;20035;-84
2023/10/06 10:19:11;;;;;;;0.43;0.38;;;18.90;99.90;;;;;;5018287;28;20055;-83
2023/10/06 10:21:38;;;;;;;0.50;0.50;;;19.00;99.90;;;;;;5018317;28;20126;-83
2023/10/06 10:24:07;;;;;;;0.50;0.50;;;18.90;99.90;;;;;;5017891;28;20113;-86
2023/10/06 10:26:34;;;;;;;0.45;0.45;;;18.90;99.90;;;;;;5020773;28;20132;-83
2023/10/06 10:29:12;;;;;;;0.30;0.30;;;19.00;99.90;;;;;;5027276;28;20075;-84
2023/10/06 10:31:56;;;;;;;0.30;0.30;;;18.90;99.90;;;;;;5023609;28;20174;-84
2023/10/06 10:34:23;;;;;;;7.53;0.50;;;18.90;99.90;;;;;;5019762;28;20045;-84
2023/10/06 10:37:11;;;;;;;2.55;0.50;;;18.80;99.90;;;;;;5023605;28;20381;-86
2023/10/06 10:39:41;;;;;;;0.80;0.40;;;18.90;99.90;;;;;;5034034;28;20105;-83
2023/10/06 10:42:08;;;;;;;0.65;0.63;;;19.30;99.90;;;;;;5018757;28;20021;-85
2023/10/06 10:44:35;;;;;;;0.32;0.32;;;19.60;99.90;;;;;;5031535;28;20064;-84
2023/10/06 10:47:05;;;;;;;0.50;0.50;;;19.40;99.90;;;;;;5009495;28;20488;-84
2023/10/06 10:49:32;;;;;;;0.75;0.63;;;19.60;99.90;;;;;;5013294;28;20124;-82
2023/10/06 10:52:09;;;;;;;0.77;0.75;;;19.80;99.90;;;;;;5029871;28;20056;-82
2023/10/06 10:54:44;;;;;;;0.43;0.43;;;20.10;99.90;;;;;;5031082;28;20041;-85
2023/10/06 10:57:13;;;;;;;1.42;0.93;;;20.10;99.90;;;;;;5015174;28;20125;-87
2023/10/06 11:02:50;;;;;;;0.70;0.50;;;20.10;99.90;;;;;;5036167;28;20108;-86
2023/10/06 11:05:19;;;;;;;0.43;0.43;;;20.40;99.90;;;;;;5002211;28;20029;-86
2023/10/06 11:07:58;;;;;;;2.67;1.75;;;20.60;99.90;;;;;;5032131;28;20035;-86
2023/10/06 11:10:26;;;;;;;1.75;1.65;;;20.60;99.90;;;;;;5036918;28;20020;-86
2023/10/06 11:13:21;;;;;;;0.45;0.45;;;20.70;99.90;;;;;;5028868;28;20057;-88
2023/10/06 11:15:50;;;;;;;0.30;0.30;;;20.70;99.90;;;;;;5031116;28;20060;-87
2023/10/06 11:18:22;;;;;;;1.23;0.47;;;21.00;99.90;;;;;;5023509;28;20021;-88
2023/10/06 11:20:48;;;;;;;0.90;0.90;;;21.00;99.90;;;;;;5025749;28;20488;-85
2023/10/06 11:23:14;;;;;;;0.70;0.70;;;21.00;99.90;;;;;;5028978;28;20033;-89
2023/10/06 11:25:48;;;;;;;1.33;1.27;;;21.10;99.90;;;;;;5025260;28;20026;-90
2023/10/06 11:28:15;;;;;;;0.52;0.52;;;21.30;99.90;;;;;;5018588;28;20033;-86
2023/10/06 11:30:42;;;;;;;0.47;0.47;;;21.00;99.90;;;;;;5023207;28;20036;-84
2023/10/06 11:33:11;;;;;;;0.50;0.50;;;21.00;99.90;;;;;;5026256;28;20507;-84
2023/10/06 11:35:38;;;;;;;0.40;0.40;;;20.90;99.90;;;;;;5038947;28;20032;-84
2023/10/06 11:38:11;;;;;;;0.60;0.60;;;20.90;99.90;;;;;;5043778;28;20044;-84
2023/10/06 11:40:37;;;;;;;;;;;21.00;99.90;;;;;;5058452;28;20032;-84
2023/10/06 11:43:13;;;;;;;0.60;0.60;;;21.00;99.90;;;;;;5047544;28;19909;-84
2023/10/06 11:45:41;;;;;;;1.02;0.98;;;20.90;99.90;;;;;;5031926;28;20024;-84
2023/10/06 11:48:28;;;;;;;14.55;7.18;;;20.80;99.90;;;;;;5014637;28;20030;-82
2023/10/06 11:51:06;;;;;;;0.80;0.73;;;20.70;99.90;;;;;;5031175;28;20067;-83
2023/10/06 11:53:36;;;;;;;1.27;1.27;;;20.70;99.90;;;;;;5016060;28;20025;-84
2023/10/06 11:56:12;;;;;;;0.50;0.50;;;20.90;99.90;;;;;;5016400;28;20022;-84
2023/10/06 11:58:40;;;;;;;0.55;0.55;;;21.10;99.90;;;;;;5035714;28;20025;-84
2023/10/06 12:01:26;;;;;;;0.40;0.40;;;21.10;99.90;;;;;;5034765;28;20038;-84
2023/10/06 12:03:52;;;;;;;1.10;1.00;;;21.30;99.90;;;;;;5036368;28;20021;-82
2023/10/06 12:06:23;;;;;;;0.77;0.77;;;21.40;99.90;;;;;;5035175;28;20021;-82
2023/10/06 12:08:52;;;;;;;0.80;0.80;;;21.50;99.90;;;;;;5034965;28;20033;-82
2023/10/06 12:11:20;;;;;;;1.27;0.70;;;21.60;99.90;;;;;;5018245;28;20022;-82
2023/10/06 12:13:46;;;;;;;0.40;0.40;;;21.70;99.90;;;;;;5034913;28;20052;-82
2023/10/06 12:16:16;;;;;;;0.80;0.80;;;21.70;99.90;;;;;;5031009;28;20412;-80
2023/10/06 12:18:46;;;;;;;0.73;0.73;;;21.60;99.90;;;;;;5037805;28;20377;-81
2023/10/06 12:21:15;;;;;;;0.70;0.70;;;21.70;99.90;;;;;;5020275;28;20169;-82
2023/10/06 12:23:45;;;;;;;0.90;0.90;;;21.70;99.90;;;;;;5032136;28;20108;-81
2023/10/06 12:26:10;;;;;;;0.75;0.75;;;21.90;99.90;;;;;;5032898;28;20370;-81
2023/10/06 12:28:38;;;;;;;4.05;2.50;;;22.00;99.90;;;;;;5016482;28;20026;-81
2023/10/06 12:31:05;;;;;;;0.40;0.40;;;22.00;99.90;;;;;;5032875;28;20045;-82
2023/10/06 12:33:32;;;;;;;0.55;0.55;;;22.00;99.90;;;;;;5016590;28;20072;-82
2023/10/06 12:35:58;;;;;;;1.25;1.15;;;21.90;99.90;;;;;;5032623;28;20067;-81
2023/10/06 12:38:26;;;;;;;0.60;0.60;;;22.00;99.90;;;;;;5033659;28;20584;-81
2023/10/06 12:40:54;;;;;;;0.95;0.63;;;22.00;99.90;;;;;;5026106;28;20029;-82
2023/10/06 12:43:20;;;;;;;0.52;0.52;;;22.10;99.90;;;;;;5034660;28;20335;-82
2023/10/06 12:45:46;;;;;;;1.35;0.73;;;22.40;99.90;;;;;;5015838;28;20482;-83
2023/10/06 12:48:11;;;;;;;0.50;0.50;;;22.50;99.90;;;;;;5033703;28;20136;-81
2023/10/06 12:50:40;;;;;;;0.65;0.65;;;22.70;99.90;;;;;;5031858;28;20037;-83
2023/10/06 12:53:11;;;;;;;0.60;0.60;;;22.80;99.80;;;;;;5037540;28;20489;-81
2023/10/06 12:55:41;;;;;;;0.77;0.75;;;22.90;98.90;;;;;;5028815;28;20029;-82
2023/10/06 12:58:11;;;;;;;3.60;1.85;;;22.90;99.20;;;;;;5032703;28;20023;-81
2023/10/06 13:00:40;;;;;;;0.70;0.70;;;22.80;98.30;;;;;;5031602;28;20025;-82
2023/10/06 13:03:15;;;;;;;9.60;0.82;;;22.70;99.10;;;;;;5031549;28;20515;-81
2023/10/06 13:05:45;;;;;;;0.55;0.55;;;22.70;99.40;;;;;;5012809;28;20035;-82
2023/10/06 13:08:16;;;;;;;0.70;0.70;;;22.80;98.60;;;;;;5033324;28;20033;-82
2023/10/06 13:10:44;;;;;;;0.68;0.68;;;22.80;98.90;;;;;;5030257;28;20029;-82
2023/10/06 13:13:12;;;;;;;0.70;0.70;;;22.60;98.10;;;;;;5036939;28;20417;-80